Time;durP1;ratioP1;P1;durP2;ratioP2;P2;SDS_P1;SDS_P2;PMS_P1;PMS_P2;Temp;Humidity;BMP_temperature;BMP_pressure;BME280_temperature;BME280_humidity;BME280_pressure;Samples;Min_cycle;Max_cycle;Signal;HPM_P1;HPM_P2
2022/03/05 00:01:25;;;;;;;2.00;2.00;;;5.20;99.90;4.90;101885.00;;;;5098532;28;20184;-70
2022/03/05 00:03:53;;;;;;;0.40;0.40;;;5.10;99.90;5.10;101834.00;;;;5114738;28;20294;-71
2022/03/05 00:06:19;;;;;;;0.83;0.83;;;5.10;99.90;4.90;101887.00;;;;5115132;28;20233;-71
2022/03/05 00:08:48;;;;;;;3.73;0.63;;;4.90;99.90;5.30;101832.00;;;;5098091;28;20185;-70
2022/03/05 00:11:19;;;;;;;2.83;0.50;;;5.00;99.90;5.10;101878.00;;;;5097793;28;20232;-70
2022/03/05 00:13:48;;;;;;;11.70;1.60;;;5.10;99.90;5.10;101885.00;;;;5098296;28;20214;-71
2022/03/05 00:16:16;;;;;;;0.60;0.60;;;5.10;99.90;5.00;101824.00;;;;5098643;28;20188;-70
2022/03/05 00:18:49;;;;;;;0.30;0.30;;;5.10;99.90;4.80;101895.00;;;;5098084;28;20240;-71
2022/03/05 00:21:20;;;;;;;1.17;1.17;;;5.00;99.90;4.90;101887.00;;;;5098080;28;20216;-70
2022/03/05 00:23:51;;;;;;;2.37;2.27;;;4.90;99.90;4.90;101892.00;;;;5097690;28;20180;-71
2022/03/05 00:26:22;;;;;;;0.23;0.23;;;4.90;99.90;4.80;101889.00;;;;5098194;28;20188;-70
2022/03/05 00:28:50;;;;;;;0.67;0.67;;;4.80;99.90;5.00;101893.00;;;;5097504;28;20639;-70
2022/03/05 00:31:17;;;;;;;4.33;1.90;;;4.90;99.90;5.00;101828.00;;;;5097638;28;20310;-70
2022/03/05 00:33:45;;;;;;;0.40;0.40;;;4.90;99.90;5.10;101889.00;;;;5114754;28;20188;-70
2022/03/05 00:36:21;;;;;;;1.03;1.03;;;5.10;99.90;4.90;101820.00;;;;5097640;28;20172;-71
2022/03/05 00:38:49;;;;;;;0.70;0.70;;;4.90;99.90;5.00;101834.00;;;;5097631;28;20709;-70
2022/03/05 00:41:20;;;;;;;2.53;2.43;;;5.00;99.90;4.90;101883.00;;;;5114361;28;20187;-71
2022/03/05 00:43:46;;;;;;;0.20;0.20;;;4.90;99.90;4.70;101890.00;;;;5114570;28;20180;-71
2022/03/05 00:46:17;;;;;;;0.43;0.43;;;4.80;99.90;4.60;101893.00;;;;5097190;28;20700;-71
2022/03/05 00:48:43;;;;;;;0.20;0.20;;;4.70;99.90;4.60;101887.00;;;;5114173;28;20176;-71
2022/03/05 00:51:14;;;;;;;0.77;0.77;;;4.70;99.90;4.60;101899.00;;;;5097155;28;20210;-71
2022/03/05 00:53:42;;;;;;;0.20;0.20;;;4.70;99.90;4.70;101901.00;;;;5097416;28;20180;-71
2022/03/05 00:56:16;;;;;;;0.20;0.20;;;4.60;99.90;4.70;101886.00;;;;5096056;28;20176;-71
2022/03/05 00:58:45;;;;;;;0.20;0.20;;;4.60;99.90;4.70;101898.00;;;;5114306;28;20624;-71
2022/03/05 01:01:15;;;;;;;0.20;0.20;;;4.60;99.90;4.70;101892.00;;;;5097086;28;20639;-71
2022/03/05 01:03:48;;;;;;;0.30;0.30;;;4.50;99.90;4.70;101890.00;;;;5097240;28;20620;-71
2022/03/05 01:06:19;;;;;;;0.20;0.20;;;4.50;99.90;4.60;101889.00;;;;5114030;28;20211;-70
2022/03/05 01:08:47;;;;;;;0.20;0.20;;;4.40;99.90;4.60;101886.00;;;;5114134;28;20199;-71
2022/03/05 01:11:16;;;;;;;0.30;0.30;;;4.40;99.90;4.50;101823.00;;;;5113939;28;20710;-71
2022/03/05 01:13:43;;;;;;;0.20;0.20;;;4.40;99.90;4.40;101877.00;;;;5096834;28;20188;-71
2022/03/05 01:16:17;;;;;;;0.20;0.20;;;4.30;99.90;4.20;101876.00;;;;5096470;28;20237;-71
2022/03/05 01:18:49;;;;;;;0.20;0.20;;;4.20;99.90;4.20;101889.00;;;;5113574;28;20179;-71
2022/03/05 01:21:15;;;;;;;0.20;0.20;;;4.10;99.90;3.90;101895.00;;;;5097187;28;20168;-71
2022/03/05 01:23:43;;;;;;;0.20;0.20;;;4.10;99.90;4.10;101894.00;;;;5115243;27;20307;-71
2022/03/05 01:26:09;;;;;;;0.23;0.23;;;4.00;99.90;3.70;101876.00;;;;5113710;28;20536;-71
2022/03/05 01:28:40;;;;;;;0.20;0.20;;;3.90;99.90;3.60;101895.00;;;;5096633;28;20524;-71
2022/03/05 01:31:06;;;;;;;0.23;0.23;;;3.80;99.90;3.60;101872.00;;;;5113312;28;20176;-71
2022/03/05 01:33:37;;;;;;;0.30;0.30;;;3.70;99.90;3.60;101815.00;;;;5096174;28;20552;-71
2022/03/05 01:36:08;;;;;;;0.30;0.30;;;3.60;99.90;3.50;101882.00;;;;5096304;28;20180;-72
2022/03/05 01:38:40;;;;;;;0.30;0.30;;;3.60;99.90;3.60;101858.00;;;;5096427;28;20180;-71
2022/03/05 01:41:10;;;;;;;1.60;1.60;;;3.60;99.90;3.50;101870.00;;;;5097181;28;20176;-71
2022/03/05 01:43:37;;;;;;;0.30;0.30;;;3.50;99.90;3.70;101859.00;;;;5096221;28;20840;-71
2022/03/05 01:46:08;;;;;;;0.30;0.30;;;3.60;99.90;3.40;101865.00;;;;5113073;28;20183;-72
2022/03/05 01:48:40;;;;;;;0.40;0.40;;;3.40;99.90;3.40;101885.00;;;;5096751;28;20254;-72
2022/03/05 01:51:11;;;;;;;0.30;0.30;;;3.40;99.90;3.40;101872.00;;;;5113087;28;20530;-72
2022/03/05 01:53:39;;;;;;;0.40;0.40;;;3.40;99.90;3.30;101854.00;;;;5113252;28;20160;-71
2022/03/05 01:56:13;;;;;;;0.40;0.40;;;3.30;99.90;3.30;101798.00;;;;5095876;28;20186;-72
2022/03/05 01:58:42;;;;;;;0.40;0.40;;;3.30;99.90;2.80;101852.00;;;;5096286;28;20187;-72
2022/03/05 02:01:13;;;;;;;0.40;0.40;;;3.20;99.90;3.00;101831.00;;;;5113161;28;20190;-71
2022/03/05 02:03:45;;;;;;;0.40;0.40;;;3.20;99.90;3.10;101825.00;;;;5096305;28;20393;-71
2022/03/05 02:06:15;;;;;;;0.50;0.50;;;3.10;99.90;3.00;101777.00;;;;5095617;28;20177;-71
2022/03/05 02:08:46;;;;;;;0.40;0.40;;;3.10;99.90;3.10;101829.00;;;;5095789;28;20523;-72
2022/03/05 02:11:18;;;;;;;0.60;0.60;;;3.10;99.90;3.30;101842.00;;;;5095741;28;20176;-72
2022/03/05 02:13:44;;;;;;;0.50;0.50;;;3.20;99.90;3.00;101814.00;;;;5095517;28;20573;-72
2022/03/05 02:16:12;;;;;;;0.70;0.70;;;3.20;99.90;3.00;101823.00;;;;5095748;28;20264;-72
2022/03/05 02:18:44;;;;;;;0.57;0.57;;;3.20;99.90;2.80;101814.00;;;;5096151;28;20176;-72
2022/03/05 02:21:13;;;;;;;0.50;0.50;;;3.10;99.90;2.90;101801.00;;;;5112584;28;20229;-72
2022/03/05 02:23:42;;;;;;;0.50;0.50;;;3.10;99.90;2.70;101752.00;;;;5095498;28;20179;-72
2022/03/05 02:26:11;;;;;;;0.50;0.50;;;3.00;99.90;2.90;101810.00;;;;5112962;28;20172;-72
2022/03/05 02:28:42;;;;;;;0.80;0.80;;;3.00;99.90;2.90;101748.00;;;;5095451;28;20180;-72
2022/03/05 02:31:13;;;;;;;0.60;0.60;;;3.10;99.90;3.00;101817.00;;;;5112425;28;20562;-72
2022/03/05 02:33:45;;;;;;;0.80;0.80;;;3.10;99.90;2.80;101825.00;;;;5113078;28;20196;-72
2022/03/05 02:36:13;;;;;;;0.57;0.57;;;3.00;99.90;2.60;101820.00;;;;5112299;28;20180;-72
2022/03/05 02:38:45;;;;;;;1.83;1.67;;;2.90;99.90;2.00;101813.00;;;;5112640;28;20207;-72
2022/03/05 02:41:13;;;;;;;0.50;0.50;;;2.70;99.90;2.60;101796.00;;;;5095615;28;20191;-72
2022/03/05 02:43:48;;;;;;;0.50;0.50;;;2.70;99.90;2.80;101751.00;;;;5112137;28;20187;-72
2022/03/05 02:46:25;;;;;;;0.60;0.60;;;2.90;99.90;2.60;101800.00;;;;5112481;28;20176;-72
2022/03/05 02:48:58;;;;;;;0.60;0.60;;;2.90;99.90;2.50;101795.00;;;;5112690;28;20156;-70
2022/03/05 02:51:30;;;;;;;0.60;0.60;;;2.70;99.90;2.10;101790.00;;;;5112592;28;20270;-72
2022/03/05 02:53:58;;;;;;;0.50;0.50;;;2.60;99.90;2.30;101787.00;;;;5113769;28;20180;-72
2022/03/05 02:56:33;;;;;;;0.70;0.70;;;2.50;99.90;2.80;101796.00;;;;5112433;28;20187;-72
2022/03/05 02:59:02;;;;;;;0.87;0.87;;;2.80;99.90;2.60;101734.00;;;;5112147;28;20228;-72
2022/03/05 03:01:30;;;;;;;0.50;0.50;;;2.90;99.90;2.50;101792.00;;;;5095134;28;20643;-72
2022/03/05 03:03:59;;;;;;;0.60;0.60;;;2.80;99.90;2.40;101789.00;;;;5112280;28;20515;-72
2022/03/05 03:06:27;;;;;;;0.50;0.50;;;2.70;99.90;2.70;101784.00;;;;5095301;28;20176;-72
2022/03/05 03:08:57;;;;;;;0.60;0.60;;;2.80;99.90;2.70;101787.00;;;;5095151;28;20191;-72
2022/03/05 03:11:26;;;;;;;0.60;0.60;;;2.80;99.90;2.40;101784.00;;;;5095236;28;20204;-71
2022/03/05 03:14:20;;;;;;;0.50;0.50;;;2.70;99.90;2.50;101783.00;;;;5095100;28;20267;-72
2022/03/05 03:16:46;;;;;;;1.13;1.07;;;2.70;99.90;2.50;101773.00;;;;5111654;28;20197;-72
2022/03/05 03:19:19;;;;;;;2.50;2.40;;;2.80;99.90;2.70;101786.00;;;;5097583;28;20229;-71
2022/03/05 03:21:45;;;;;;;0.70;0.70;;;2.80;99.90;2.40;101738.00;;;;5099448;28;20186;-71
2022/03/05 03:24:14;;;;;;;0.70;0.70;;;2.70;99.90;2.30;101782.00;;;;5116295;28;20494;-72
2022/03/05 03:26:45;;;;;;;0.60;0.60;;;2.60;99.90;2.30;101774.00;;;;5098469;28;20195;-71
2022/03/05 03:29:18;;;;;;;0.70;0.70;;;2.50;99.90;2.40;101770.00;;;;5099225;28;20172;-71
2022/03/05 03:31:49;;;;;;;0.80;0.80;;;2.50;99.90;2.20;101770.00;;;;5115809;28;20204;-71
2022/03/05 03:34:25;;;;;;;1.20;1.20;;;2.50;99.90;2.40;101729.00;;;;5099398;28;20180;-71
2022/03/05 03:36:58;;;;;;;2.40;2.20;;;2.60;99.90;2.60;101768.00;;;;5115783;28;20623;-72
2022/03/05 03:39:27;;;;;;;0.60;0.60;;;2.60;99.90;2.40;101781.00;;;;5116668;28;20544;-72
2022/03/05 03:41:55;;;;;;;0.60;0.60;;;2.70;99.90;2.40;101779.00;;;;5099127;28;20201;-72
2022/03/05 03:44:24;;;;;;;0.50;0.50;;;2.70;99.90;2.50;101778.00;;;;5098504;28;20187;-71
2022/03/05 03:46:57;;;;;;;0.60;0.60;;;2.60;99.90;2.80;101733.00;;;;5063478;28;20226;-72
2022/03/05 03:49:26;;;;;;;0.60;0.60;;;2.80;99.90;2.50;101778.00;;;;5055019;28;20178;-72
2022/03/05 03:51:54;;;;;;;0.60;0.60;;;2.70;99.90;2.30;101781.00;;;;5038828;28;20202;-71
2022/03/05 03:54:25;;;;;;;0.60;0.60;;;2.60;99.90;2.10;101789.00;;;;5054464;28;20182;-72
2022/03/05 03:56:57;;;;;;;0.60;0.60;;;2.40;99.90;2.10;101773.00;;;;5055319;28;20240;-71
2022/03/05 03:59:30;;;;;;;0.60;0.60;;;2.40;99.90;2.40;101781.00;;;;5054569;28;20529;-72
2022/03/05 04:01:59;;;;;;;1.03;1.03;;;2.50;99.90;2.40;101781.00;;;;5054616;28;20193;-71
2022/03/05 04:04:29;;;;;;;0.50;0.50;;;2.60;99.90;2.00;101780.00;;;;5054485;28;20182;-72
2022/03/05 04:09:48;;;;;;;0.60;0.60;;;2.20;99.90;1.70;101770.00;;;;5054333;28;20193;-72
2022/03/05 04:12:39;;;;;;;0.50;0.50;;;2.10;99.90;1.90;101778.00;;;;5038015;28;20214;-72
2022/03/05 04:15:30;;;;;;;0.50;0.50;;;2.10;99.90;1.60;101736.00;;;;5051019;28;20225;-72
2022/03/05 04:17:58;;;;;;;0.87;0.87;;;2.00;99.90;1.70;101781.00;;;;5054540;28;20178;-71
2022/03/05 04:21:24;;;;;;;0.60;0.60;;;2.00;99.90;2.00;101790.00;;;;5054237;28;20182;-71
2022/03/05 04:23:53;;;;;;;0.50;0.50;;;2.10;99.90;1.30;101773.00;;;;5055218;28;20182;-71
2022/03/05 04:26:29;;;;;;;0.50;0.50;;;1.90;99.90;1.40;101768.00;;;;5036623;28;20220;-71
2022/03/05 04:28:58;;;;;;;0.50;0.50;;;1.80;99.90;1.60;101768.00;;;;5038120;28;20178;-71
2022/03/05 04:31:26;;;;;;;0.50;0.50;;;1.80;99.90;1.80;101772.00;;;;5037586;28;20293;-71
2022/03/05 04:34:00;;;;;;;0.50;0.50;;;2.00;99.90;1.80;101768.00;;;;5053776;28;20190;-71
2022/03/05 04:36:32;;;;;;;0.80;0.80;;;2.00;99.90;1.90;101772.00;;;;5054120;28;20363;-72
2022/03/05 04:39:06;;;;;;;0.40;0.40;;;2.00;99.90;1.70;101773.00;;;;5053796;28;20197;-71
2022/03/05 04:41:34;;;;;;;0.70;0.70;;;2.00;99.90;1.50;101773.00;;;;5038160;28;20182;-71
2022/03/05 04:44:07;;;;;;;3.37;3.17;;;1.90;99.90;1.50;101757.00;;;;5053705;28;20209;-71
2022/03/05 04:46:39;;;;;;;0.40;0.40;;;1.90;99.90;1.50;101758.00;;;;5037776;28;20185;-71
2022/03/05 04:49:09;;;;;;;7.10;3.87;;;1.90;99.90;2.10;101784.00;;;;5037140;28;20182;-71
2022/03/05 04:51:36;;;;;;;1.50;1.50;;;2.10;99.90;2.00;101784.00;;;;5053719;28;20198;-71
2022/03/05 04:54:05;;;;;;;0.87;0.87;;;2.30;99.90;1.70;101776.00;;;;5054608;28;20717;-71
2022/03/05 04:56:36;;;;;;;0.40;0.40;;;2.10;99.90;1.80;101765.00;;;;5053645;28;20182;-71
2022/03/05 04:59:05;;;;;;;0.40;0.40;;;2.20;99.90;1.80;101775.00;;;;5054633;28;20257;-71
2022/03/05 05:01:35;;;;;;;0.40;0.40;;;2.10;99.90;1.50;101775.00;;;;5053365;28;20287;-70
2022/03/05 05:04:04;;;;;;;0.40;0.40;;;1.90;99.90;1.40;101776.00;;;;5053326;28;20178;-72
2022/03/05 05:06:34;;;;;;;0.40;0.40;;;1.80;99.90;1.20;101786.00;;;;5053411;28;20182;-71
2022/03/05 05:09:05;;;;;;;0.50;0.50;;;1.70;99.90;1.10;101776.00;;;;5053034;28;20178;-71
2022/03/05 05:11:39;;;;;;;0.50;0.50;;;1.60;99.90;1.20;101777.00;;;;5054447;28;20288;-71
2022/03/05 05:14:12;;;;;;;0.40;0.40;;;1.50;99.90;1.10;101757.00;;;;5054197;28;20660;-71
2022/03/05 05:16:45;;;;;;;0.40;0.40;;;1.50;99.90;1.30;101787.00;;;;5036902;28;20182;-71
2022/03/05 05:19:27;;;;;;;0.50;0.50;;;1.60;99.90;0.60;101715.00;;;;5053264;28;20163;-71
2022/03/05 05:22:00;;;;;;;0.40;0.40;;;1.50;99.90;1.20;101778.00;;;;5053339;28;20185;-72
2022/03/05 05:24:30;;;;;;;0.50;0.50;;;1.50;99.90;1.20;101780.00;;;;5036058;28;20527;-72
2022/03/05 05:26:56;;;;;;;2.70;2.60;;;1.60;99.90;0.80;101763.00;;;;5052882;28;20594;-72
2022/03/05 05:29:31;;;;;;;2.20;2.10;;;1.40;99.90;1.00;101720.00;;;;5052920;28;20530;-71
2022/03/05 05:31:58;;;;;;;1.27;1.27;;;1.30;99.90;1.20;101735.00;;;;5053131;28;20189;-72
2022/03/05 05:34:26;;;;;;;0.77;0.77;;;1.40;99.90;0.90;101768.00;;;;5052784;28;20185;-71
2022/03/05 05:36:59;;;;;;;1.13;1.13;;;1.40;99.90;0.80;101779.00;;;;5036024;28;20193;-72
2022/03/05 05:39:24;;;;;;;0.63;0.63;;;1.30;99.90;0.70;101754.00;;;;5052969;28;20193;-72
2022/03/05 05:41:55;;;;;;;0.40;0.40;;;1.20;99.90;0.50;101789.00;;;;5052204;28;20182;-72
2022/03/05 05:44:24;;;;;;;0.40;0.40;;;1.10;99.90;0.40;101779.00;;;;5052903;28;20244;-72
2022/03/05 05:46:58;;;;;;;0.90;0.90;;;1.10;99.90;0.40;101789.00;;;;5052795;28;20242;-71
2022/03/05 05:49:33;;;;;;;0.37;0.37;;;1.00;99.90;0.80;101790.00;;;;5052592;28;20177;-72
2022/03/05 05:52:06;;;;;;;0.37;0.37;;;1.10;99.90;0.50;101773.00;;;;5052091;28;20558;-72
2022/03/05 05:54:35;;;;;;;3.23;3.03;;;1.10;99.90;0.60;101779.00;;;;5052737;28;20257;-70
2022/03/05 05:57:04;;;;;;;0.70;0.63;;;1.10;99.90;0.60;101772.00;;;;5052613;28;20202;-71
2022/03/05 05:59:32;;;;;;;1.35;0.95;;;1.00;99.90;0.90;101783.00;;;;5052356;28;20424;-72
2022/03/05 06:02:01;;;;;;;0.60;0.60;;;1.20;99.90;0.90;101717.00;;;;5068769;28;20182;-71
2022/03/05 06:04:32;;;;;;;0.93;0.93;;;1.30;99.90;0.90;101780.00;;;;5052088;28;20159;-72
2022/03/05 06:07:00;;;;;;;3.13;2.00;;;1.30;99.90;0.70;101772.00;;;;5052563;28;20265;-71
2022/03/05 06:09:31;;;;;;;3.50;3.30;;;1.20;99.90;0.70;101776.00;;;;5035707;28;20190;-73
2022/03/05 06:12:06;;;;;;;4.07;3.70;;;1.10;99.90;0.40;101761.00;;;;5035703;28;20201;-73
2022/03/05 06:14:39;;;;;;;2.20;2.10;;;1.10;99.90;0.30;101754.00;;;;5052305;28;20632;-73
2022/03/05 06:17:05;;;;;;;2.80;2.70;;;1.00;99.90;0.40;101706.00;;;;5052112;28;20189;-72
2022/03/05 06:19:35;;;;;;;2.20;2.10;;;1.00;99.90;0.30;101756.00;;;;5035310;28;20186;-73
2022/03/05 06:22:28;;;;;;;0.40;0.40;;;1.00;99.90;-0.10;101693.00;;;;5052067;28;20574;-73
2022/03/05 06:24:56;;;;;;;0.30;0.30;;;0.80;99.90;0.00;101756.00;;;;5051128;28;20288;-72
2022/03/05 06:27:27;;;;;;;0.40;0.40;;;0.70;99.90;0.50;101765.00;;;;5035267;28;20630;-72
2022/03/05 06:29:59;;;;;;;0.37;0.37;;;0.90;99.90;0.60;101757.00;;;;5035807;28;20190;-72
2022/03/05 06:32:44;;;;;;;0.60;0.60;;;1.00;99.90;0.00;101762.00;;;;5051938;28;20213;-71
2022/03/05 06:35:32;;;;;;;2.40;2.23;;;0.90;99.90;0.40;101770.00;;;;5051818;28;20170;-72
2022/03/05 06:38:33;;;;;;;0.63;0.63;;;0.90;99.90;0.50;101709.00;;;;5035797;28;20174;-72
2022/03/05 06:41:46;;;;;;;0.60;0.60;;;1.10;99.90;0.50;101761.00;;;;5051903;28;20185;-72
2022/03/05 06:44:15;;;;;;;0.30;0.30;;;1.00;99.90;0.60;101757.00;;;;5052127;28;20344;-71
2022/03/05 06:46:43;;;;;;;0.60;0.60;;;1.20;99.90;1.00;101756.00;;;;5035629;28;20182;-71
2022/03/05 06:49:12;;;;;;;0.40;0.40;;;1.30;99.90;0.90;101767.00;;;;5051562;28;20247;-72
2022/03/05 06:51:43;;;;;;;0.60;0.60;;;1.40;99.90;1.00;101767.00;;;;5051782;28;20193;-71
2022/03/05 06:54:11;;;;;;;0.80;0.80;;;1.50;99.90;1.00;101770.00;;;;5037577;28;20276;-71
2022/03/05 06:56:43;;;;;;;2.53;2.43;;;1.50;99.90;0.50;101757.00;;;;5055601;28;20213;-72
2022/03/05 06:59:12;;;;;;;0.50;0.50;;;1.40;99.90;0.50;101763.00;;;;5039118;28;20182;-72
2022/03/05 07:01:43;;;;;;;0.40;0.40;;;1.30;99.90;0.40;101769.00;;;;5055676;28;20204;-72
2022/03/05 07:04:14;;;;;;;0.40;0.40;;;1.30;99.90;0.80;101751.00;;;;5055610;28;20186;-72
2022/03/05 07:06:40;;;;;;;2.50;2.30;;;1.40;99.90;0.90;101772.00;;;;5055603;28;20193;-71
2022/03/05 07:09:11;;;;;;;0.30;0.30;;;1.70;99.90;0.50;101780.00;;;;5038763;28;20190;-71
2022/03/05 07:11:42;;;;;;;0.30;0.30;;;1.50;99.90;1.20;101773.00;;;;5039063;28;20241;-71
2022/03/05 07:14:16;;;;;;;0.30;0.30;;;1.70;99.90;1.80;101775.00;;;;5055803;28;20186;-72
2022/03/05 07:16:48;;;;;;;1.17;1.17;;;2.00;99.90;2.20;101781.00;;;;5055419;28;20189;-71
2022/03/05 07:19:16;;;;;;;1.00;0.90;;;2.50;99.90;2.90;101800.00;;;;5055464;28;20261;-72
2022/03/05 07:21:44;;;;;;;0.30;0.30;;;3.00;99.90;2.80;101791.00;;;;5055092;28;20192;-72
2022/03/05 07:24:15;;;;;;;0.57;0.57;;;3.20;99.90;3.10;101808.00;;;;5055463;28;20662;-72
2022/03/05 07:26:46;;;;;;;0.30;0.30;;;3.30;99.90;3.40;101813.00;;;;5038987;28;20185;-72
2022/03/05 07:29:14;;;;;;;1.17;1.17;;;3.60;99.90;3.40;101816.00;;;;5055709;28;20169;-73
2022/03/05 07:31:40;;;;;;;0.30;0.30;;;3.60;99.90;3.20;101825.00;;;;5054902;28;20194;-73
2022/03/05 07:37:09;;;;;;;0.50;0.50;;;3.70;99.90;3.70;101828.00;;;;5055248;28;20283;-73
2022/03/05 07:39:38;;;;;;;0.40;0.40;;;3.80;99.90;3.60;101848.00;;;;5055123;28;20174;-73
2022/03/05 07:42:04;;;;;;;1.03;1.03;;;4.00;99.90;4.10;101839.00;;;;5054920;28;20190;-73
2022/03/05 07:44:34;;;;;;;1.23;1.20;;;4.20;99.90;4.10;101839.00;;;;5054107;28;20248;-73
2022/03/05 07:47:02;;;;;;;0.50;0.50;;;4.40;99.90;3.40;101849.00;;;;5055016;28;20294;-72
2022/03/05 07:49:31;;;;;;;1.47;1.37;;;4.10;99.90;4.20;101846.00;;;;5054814;28;20182;-73
2022/03/05 07:52:04;;;;;;;0.30;0.30;;;4.40;99.90;4.60;101857.00;;;;5054870;28;20252;-73
2022/03/05 07:54:38;;;;;;;0.30;0.30;;;4.80;99.90;5.20;101848.00;;;;5056010;28;20183;-71
2022/03/05 07:58:16;;;;;;;0.40;0.40;;;5.20;99.90;6.40;101876.00;;;;5053681;28;20440;-71
2022/03/05 08:00:47;;;;;;;1.10;1.10;;;6.00;99.90;7.40;101887.00;;;;5054253;28;20208;-72
2022/03/05 08:03:16;;;;;;;0.30;0.30;;;7.00;99.90;7.80;101937.00;;;;5038243;28;20210;-72
2022/03/05 08:05:45;;;;;;;3.20;3.07;;;7.60;99.90;8.50;101971.00;;;;5037498;28;20234;-72
2022/03/05 08:08:14;;;;;;;1.13;1.10;;;8.20;99.90;8.10;101980.00;;;;5055829;28;20182;-71
2022/03/05 08:10:46;;;;;;;1.20;1.20;;;8.30;99.90;9.20;102001.00;;;;5037845;28;20196;-71
2022/03/05 08:13:17;;;;;;;0.20;0.20;;;8.80;99.90;9.60;102017.00;;;;5054100;28;20254;-72
2022/03/05 08:15:46;;;;;;;1.57;1.47;;;9.30;99.90;10.10;102014.00;;;;5054164;28;20734;-73
2022/03/05 08:18:20;;;;;;;1.03;1.03;;;9.70;99.90;9.80;102055.00;;;;5037299;28;20231;-73
2022/03/05 08:20:49;;;;;;;0.70;0.70;;;9.70;99.90;9.20;102076.00;;;;5054562;28;20601;-72
2022/03/05 08:23:20;;;;;;;1.90;1.80;;;9.70;99.90;8.10;102063.00;;;;5055262;28;20179;-73
2022/03/05 08:25:50;;;;;;;0.20;0.20;;;9.10;99.90;7.10;102026.00;;;;5054158;28;20180;-72
2022/03/05 08:28:21;;;;;;;0.80;0.80;;;7.70;99.90;5.60;102005.00;;;;5055269;28;20185;-71
2022/03/05 08:30:55;;;;;;;0.80;0.80;;;6.90;99.90;6.10;101968.00;;;;5038236;28;20189;-69
2022/03/05 08:33:34;;;;;;;1.80;1.50;;;6.40;99.90;5.80;101953.00;;;;5053836;28;20210;-72
2022/03/05 08:36:00;;;;;;;3.00;2.03;;;6.50;99.90;7.70;101979.00;;;;5037267;28;20212;-72
2022/03/05 08:38:34;;;;;;;1.30;1.20;;;7.30;99.90;7.80;101952.00;;;;5037077;28;20221;-72
2022/03/05 08:41:04;;;;;;;11.30;6.17;;;7.70;99.90;5.40;101998.00;;;;5055252;28;20276;-71
2022/03/05 08:43:33;;;;;;;1.30;1.03;;;7.10;99.90;5.60;101978.00;;;;5053705;28;20189;-72
2022/03/05 08:46:05;;;;;;;0.87;0.87;;;6.50;99.90;6.40;101958.00;;;;5037021;28;20622;-71
2022/03/05 08:48:34;;;;;;;0.73;0.50;;;6.80;99.90;6.50;101909.00;;;;5053560;28;20174;-72
2022/03/05 08:51:01;;;;;;;2.43;2.33;;;6.70;99.90;7.00;101963.00;;;;5053481;28;20273;-72
2022/03/05 08:53:32;;;;;;;7.80;4.50;;;7.00;99.90;5.90;101968.00;;;;5037132;28;20674;-71
2022/03/05 08:56:00;;;;;;;1.37;1.27;;;6.70;99.90;5.80;101965.00;;;;5053688;28;20178;-72
2022/03/05 08:58:29;;;;;;;0.13;0.13;;;6.50;99.90;7.10;101972.00;;;;5036902;28;20182;-71
2022/03/05 09:01:03;;;;;;;0.20;0.20;;;7.10;99.90;8.60;101996.00;;;;5037352;28;20225;-72
2022/03/05 09:03:31;;;;;;;0.20;0.20;;;8.00;99.90;9.10;102043.00;;;;5053658;28;20191;-72
2022/03/05 09:05:57;;;;;;;1.47;1.40;;;8.90;99.90;10.50;102094.00;;;;5053568;28;20176;-72
2022/03/05 09:08:23;;;;;;;0.63;0.63;;;9.70;99.90;11.10;102076.00;;;;5036944;28;20189;-70
2022/03/05 09:10:54;;;;;;;0.90;0.90;;;10.40;99.90;12.10;101979.00;;;;5036579;28;20636;-70
2022/03/05 09:13:22;;;;;;;0.93;0.93;;;11.40;99.90;12.60;101978.00;;;;5052793;28;20219;-70
2022/03/05 09:15:53;;;;;;;1.53;1.53;;;12.10;99.90;12.10;101958.00;;;;5052194;28;20176;-70
2022/03/05 09:19:05;;;;;;;3.90;3.70;;;12.30;99.90;12.10;101977.00;;;;5036827;28;20202;-70
2022/03/05 09:21:37;;;;;;;1.40;1.40;;;12.00;99.90;12.20;101977.00;;;;5036922;28;20227;-71
2022/03/05 09:24:25;;;;;;;2.80;2.67;;;12.20;99.90;12.00;101975.00;;;;5036674;28;20179;-70
2022/03/05 09:26:56;;;;;;;1.00;1.00;;;12.00;99.90;10.50;101993.00;;;;5053518;28;20182;-71
2022/03/05 09:30:08;;;;;;;0.80;0.80;;;11.30;99.90;11.70;101954.00;;;;5052581;28;20186;-71
2022/03/05 09:32:34;;;;;;;3.73;3.40;;;11.20;99.90;12.30;101978.00;;;;5053016;28;20215;-70
2022/03/05 09:35:03;;;;;;;4.37;4.20;;;11.80;99.90;10.40;102011.00;;;;5053839;28;20252;-71
2022/03/05 09:37:31;;;;;;;1.20;1.10;;;11.10;99.90;11.60;101990.00;;;;5052761;28;20225;-70
2022/03/05 09:40:03;;;;;;;6.80;2.40;;;11.40;99.90;11.20;102005.00;;;;5052669;28;20708;-72
2022/03/05 09:42:34;;;;;;;10.30;4.43;;;11.30;99.90;11.80;101991.00;;;;5052707;28;20205;-72
2022/03/05 09:45:06;;;;;;;0.77;0.77;;;11.70;99.90;12.40;101981.00;;;;5036072;28;20182;-72
2022/03/05 09:47:37;;;;;;;1.23;1.23;;;12.00;99.90;11.70;101979.00;;;;5036582;28;20181;-72
2022/03/05 09:50:08;;;;;;;0.83;0.83;;;12.10;99.90;11.90;101993.00;;;;5053804;28;20600;-72
2022/03/05 09:52:40;;;;;;;2.93;2.73;;;11.90;99.90;11.90;101991.00;;;;5052485;28;20174;-72
2022/03/05 09:55:13;;;;;;;2.90;2.70;;;11.80;99.90;11.10;102010.00;;;;5036150;28;20213;-72
2022/03/05 09:57:38;;;;;;;2.07;1.97;;;11.70;99.90;11.00;102006.00;;;;5051981;28;20681;-72
2022/03/05 10:00:08;;;;;;;1.00;1.00;;;11.10;99.90;11.50;101995.00;;;;5035728;28;20186;-71
2022/03/05 10:02:38;;;;;;;8.30;2.03;;;11.40;99.90;11.50;102014.00;;;;5052441;28;20267;-71
2022/03/05 10:05:26;;;;;;;5.37;1.93;;;11.40;99.90;11.70;102011.00;;;;5035516;28;20236;-71
2022/03/05 10:08:10;;;;;;;5.77;4.40;;;11.60;99.90;10.80;102012.00;;;;5052099;28;20238;-70
2022/03/05 10:11:01;;;;;;;2.43;1.63;;;11.70;99.90;11.60;102013.00;;;;5052521;28;20260;-71
2022/03/05 10:13:32;;;;;;;0.20;0.20;;;11.60;99.90;12.20;102011.00;;;;5052264;28;20265;-71
2022/03/05 10:16:05;;;;;;;1.90;1.13;;;12.00;99.90;11.80;102010.00;;;;5051979;28;20220;-70
2022/03/05 10:18:39;;;;;;;1.93;1.83;;;11.90;99.90;10.90;102024.00;;;;5051918;28;20158;-71
2022/03/05 10:33:34;;;;;;;1.97;1.80;;;11.40;99.90;10.30;102011.00;;;;5112361;27;1324094;-71
2022/03/05 10:36:22;;;;;;;4.03;3.70;;;11.00;99.90;10.30;102008.00;;;;5130360;28;20189;-71
2022/03/05 10:38:56;;;;;;;3.33;3.03;;;10.80;99.90;10.40;101954.00;;;;5112979;28;20182;-71
2022/03/05 10:41:39;;;;;;;0.27;0.27;;;11.00;99.90;11.20;102011.00;;;;5112909;28;20175;-71
2022/03/05 10:44:16;;;;;;;0.90;0.90;;;11.40;99.90;11.50;102010.00;;;;5131670;27;20176;-71
2022/03/05 10:46:54;;;;;;;1.50;1.50;;;11.50;99.90;12.50;101953.00;;;;5113286;28;20168;-71
2022/03/05 10:49:31;;;;;;;3.03;2.03;;;12.10;99.90;12.80;101988.00;;;;5131731;27;20229;-71
2022/03/05 10:52:00;;;;;;;0.57;0.57;;;12.70;99.90;13.00;102000.00;;;;5112774;28;20283;-71
2022/03/05 10:54:35;;;;;;;3.57;3.27;;;13.00;99.90;13.40;101981.00;;;;5131215;27;20268;-71
2022/03/05 10:57:19;;;;;;;0.73;0.73;;;13.30;99.90;12.70;101965.00;;;;5130133;28;20182;-71
2022/03/05 11:00:04;;;;;;;3.60;3.30;;;13.10;99.90;11.90;102008.00;;;;5112905;28;20179;-71
2022/03/05 11:02:37;;;;;;;4.87;4.43;;;12.60;99.90;10.90;102013.00;;;;5129710;28;20177;-71
2022/03/05 11:05:06;;;;;;;3.73;2.07;;;12.20;99.90;12.10;102016.00;;;;5130360;28;20274;-71
2022/03/05 11:07:38;;;;;;;2.47;1.53;;;12.00;99.90;12.50;102001.00;;;;5113014;28;20269;-72
2022/03/05 11:10:06;;;;;;;2.93;2.73;;;12.30;99.90;12.90;101994.00;;;;5129986;28;20679;-71
2022/03/05 11:12:39;;;;;;;5.23;3.60;;;12.80;99.90;12.60;101998.00;;;;5112545;28;20199;-71
2022/03/05 11:15:10;;;;;;;4.53;4.23;;;12.80;99.90;12.30;101957.00;;;;5112904;28;20203;-72
2022/03/05 11:17:43;;;;;;;9.40;7.47;;;12.50;99.90;11.50;101997.00;;;;5129673;28;20201;-72
2022/03/05 11:20:12;;;;;;;10.00;6.33;;;12.40;99.90;11.90;102009.00;;;;5112592;28;20221;-72
2022/03/05 11:22:39;;;;;;;2.53;2.43;;;12.30;99.90;11.20;102007.00;;;;5129656;28;20183;-72
2022/03/05 11:25:05;;;;;;;7.57;4.00;;;11.90;99.90;11.60;101960.00;;;;5112143;28;20636;-69
2022/03/05 11:27:36;;;;;;;0.20;0.20;;;12.00;99.90;12.20;101999.00;;;;5129805;28;20711;-71
2022/03/05 11:30:11;;;;;;;2.37;2.27;;;12.00;99.90;11.30;102008.00;;;;5112618;28;20227;-71
2022/03/05 11:32:40;;;;;;;2.50;2.30;;;11.80;99.90;12.50;101979.00;;;;5112269;28;20219;-71
2022/03/05 11:35:30;;;;;;;1.57;1.23;;;12.30;99.90;12.10;101986.00;;;;5129329;28;20601;-71
2022/03/05 11:37:56;;;;;;;4.03;3.50;;;12.70;99.90;11.80;101982.00;;;;5128881;28;20186;-71
2022/03/05 11:40:42;;;;;;;5.33;4.20;;;12.30;99.90;11.60;101998.00;;;;5112174;28;20184;-71